Terminal Aerodrome Forecast
Issued by NWS New Orleans/Baton Rouge, LA

Home | Current Version | Previous Version | Text Only | Print | Product List | Glossary On
Versions: 1 2 3 4 5 6 7 8 9 10 11 12 13 14
000
FTUS44 KLIX 270531
TAFBTR
TAF
KBTR 270531Z 2706/2806 34008G17KT P6SM FEW018 OVC035
     FM270900 35008G16KT P6SM BKN015
     FM271200 34006KT P6SM SCT250
     FM271500 35013G20KT P6SM FEW250
     FM271900 31014G26KT P6SM SKC
     FM272300 34006KT P6SM FEW250=

USA.gov is the U.S. government's official web portal to all federal, state and local government web resources and services.